METAR UND TAF INFORMATION
METAR FOR EDDT
ADDS - METARS form results

(1632 UTC 12 November 2019)
Data provider http://aviationweather.gov/metar/data/
 
METAR text: EDDT 121620Z 17009KT 130V190 CAVOK 06/03 Q1005 NOSIG
Conditions at: EDDT (BERLIN/TEGEL (FA, DE) observed 1620 UTC 12 November 2019
Temperature: 6.0°C (43°F)
Dewpoint: 3.0°C (37°F) [RH = 81%]
Pressure (altimeter): 29.68 inches Hg (1005.0 mb)
Winds: from the S (170 degrees) at 10 MPH (9 knots; 4.6 m/s)
Visibility: 6 or more miles (10+ km)
Ceiling: ceiling and visibility are OK
Clouds: unknown
Weather: no significant weather observed at this time

METAR text: EDDT 121550Z 16010KT CAVOK 07/03 Q1005 NOSIG
Conditions at: EDDT (BERLIN/TEGEL (FA, DE) observed 1550 UTC 12 November 2019
Temperature: 7.0°C (45°F)
Dewpoint: 3.0°C (37°F) [RH = 76%]
Pressure (altimeter): 29.68 inches Hg (1005.0 mb)
Winds: from the SSE (160 degrees) at 12 MPH (10 knots; 5.1 m/s)
Visibility: 6 or more miles (10+ km)
Ceiling: ceiling and visibility are OK
Clouds: unknown
Weather: no significant weather observed at this time

Forecast for: EDDT (BERLIN/TEGEL (FA, DE)
Text: TAF EDDT 121100Z 1212/1312 20010KT CAVOK
Forecast period: 1200 to 1400 UTC 12 November 2019
Forecast type: FROM: standard forecast or significant change
Winds: from the SSW (200 degrees) at 12 MPH (10 knots; 5.1 m/s)
Visibility: 6 or more miles 10+ km)
Ceiling: unknown
Clouds: missing
Weather: NSW  (no significant weather)
Text: BECMG 1214/1216 17005KT
Forecast period: 1400 UTC 12 November 2019 to 1200 UTC 13 November 2019
Forecast type: BECOMING: Conditions expected to become as follows by 1600 UTC 12 November 2019
Winds: from the S (170 degrees) at 6 MPH (5 knots; 2.6 m/s)
Visibility: 6 or more miles 10+ km)
Ceiling: unknown
Clouds: missing
Weather: NSW  (no significant weather)

 FLUGHAFENKARTE

 RUNWAY INFORMATION
Runway 08L Runway length 9918 ft Runway width 151 ft
Runway elevation 110 ft Runway displaced threshold 0 ft Runway heading 81
Runway 26R Runway length 9918 ft Runway width 151 ft
Runway elevation 117 ft Runway displaced threshold 0 ft Runway heading 261
Runway 08R Runway length 7966 ft Runway width 151 ft
Runway elevation 109 ft Runway displaced threshold 341 ft Runway heading 81
Runway 26L Runway length 7966 ft Runway width 151 ft
Runway elevation 122 ft Runway displaced threshold 722 ft Runway heading 261

 AIRPORT FREQUENCIES
Type AFIS Name BERLIN INF Frequency 132.65 MHZ
Type APP Name BERLIN ARR Frequency 119.625 MHZ
Type ATIS Name ATIS Frequency 125.9 MHZ
Type DEP Name BERLIN DEP Frequency 120.625 MHZ
Type DIR Name BERLIN DIR Frequency 136.1 MHZ
Type GND Name GND Frequency 121.925 MHZ
Type RMP Name BERLIN MIL Frequency 136 MHZ
Type TWR Name TWR Frequency 124.525 MHZ

 AIRPORT NEAR NAVIGATION AIDS
Type NDB Name Tegel East Frequency 321 KHZ
Type NDB Name Tegel West Frequency 392 KHZ
Type VOR-DME Name Tegel Frequency 112300 KHZ



Powered by Virtual Airlines Manager [v2.6.2]